CAN1435 LEMD-SPJC
Flight info
| Callsign | CAN1435 |
|---|---|
| Flight time | N/A |
| Altitude | 31000 |
| Route | CCS4N/36L CCS DCT ELVAR/N0494F350 DCT MANOX/M086F360 DCT 34N020W 29N030W 23N040W/M086F380 DCT QUETN/N0495F380 DCT 15N050W DCT TRAPP UM527 UMREM/N0492F400 UM527 VADOS |
| Aircraft | A388/J-SADE2E3FGHIJ3J4J5M1RWXY/LB1D1 |
Departure
| Time | 2026-05-03 22:04 |
|---|---|
| Airport | Adolfo Suárez Madrid–Barajas Airport (LEMD) |
Arrival
| Time | N/A |
|---|---|
| Airport | Jorge Chávez International Airport (SPJC) |
| Time | Latitude | Longitude | Altitude | Speed | Heading |
|---|---|---|---|---|---|
| 2026-05-03 21:52 | 40.49410 | -3.56898 | 1985 ft | 0 kts | 89° |
| 2026-05-03 21:59 | 40.49410 | -3.56907 | 1987 ft | 4 kts | 89° |
| 2026-05-03 21:59 | 40.49410 | -3.56943 | 1986 ft | 4 kts | 89° |
| 2026-05-03 22:00 | 40.49410 | -3.56974 | 1986 ft | 4 kts | 84° |
| 2026-05-03 22:00 | 40.49400 | -3.57000 | 1985 ft | 4 kts | 23° |
| 2026-05-03 22:00 | 40.49374 | -3.57008 | 1984 ft | 4 kts | 2° |
| 2026-05-03 22:00 | 40.49359 | -3.57008 | 1986 ft | 1 kts | 359° |
| 2026-05-03 22:01 | 40.49357 | -3.57008 | 1986 ft | 0 kts | 359° |
| 2026-05-03 22:02 | 40.49361 | -3.57008 | 1986 ft | 2 kts | 359° |
| 2026-05-03 22:03 | 40.49432 | -3.57087 | 1988 ft | 25 kts | 297° |
| 2026-05-03 22:03 | 40.49501 | -3.57284 | 1988 ft | 23 kts | 293° |
| 2026-05-03 22:03 | 40.49574 | -3.57444 | 1987 ft | 17 kts | 339° |
| 2026-05-03 22:03 | 40.49697 | -3.57468 | 1988 ft | 29 kts | 359° |
| 2026-05-03 22:04 | 40.50148 | -3.57482 | 1987 ft | 103 kts | 359° |
| 2026-05-03 22:04 | 40.51082 | -3.57487 | 1986 ft | 160 kts | 0° |
| 2026-05-03 22:04 | 40.52265 | -3.57460 | 2116 ft | 164 kts | 358° |
| 2026-05-03 22:04 | 40.53294 | -3.57528 | 2794 ft | 142 kts | 349° |
| 2026-05-03 22:05 | 40.54316 | -3.57827 | 2877 ft | 160 kts | 341° |
| 2026-05-03 22:05 | 40.55362 | -3.58285 | 3249 ft | 153 kts | 335° |
| 2026-05-03 22:05 | 40.56377 | -3.58836 | 3404 ft | 178 kts | 338° |
| 2026-05-03 22:05 | 40.57576 | -3.59490 | 3621 ft | 191 kts | 340° |
| 2026-05-03 22:06 | 40.58923 | -3.59861 | 3814 ft | 203 kts | 341° |
| 2026-05-03 22:06 | 40.60110 | -3.60852 | 3856 ft | 206 kts | 306° |
| 2026-05-03 22:06 | 40.60652 | -3.62615 | 3916 ft | 220 kts | 274° |
| 2026-05-03 22:06 | 40.60685 | -3.64705 | 4187 ft | 238 kts | 268° |
| 2026-05-03 22:07 | 40.60627 | -3.66983 | 4480 ft | 257 kts | 268° |
| 2026-05-03 22:07 | 40.60604 | -3.68553 | 4867 ft | 261 kts | 269° |
| 2026-05-03 22:07 | 40.60621 | -3.71778 | 5735 ft | 266 kts | 271° |
| 2026-05-03 22:07 | 40.60651 | -3.73393 | 6169 ft | 268 kts | 272° |
| 2026-05-03 22:08 | 40.60709 | -3.75864 | 6813 ft | 271 kts | 272° |
| 2026-05-03 22:08 | 40.60774 | -3.78345 | 7484 ft | 272 kts | 271° |
| 2026-05-03 22:08 | 40.60839 | -3.80845 | 8164 ft | 274 kts | 271° |
| 2026-05-03 22:08 | 40.60902 | -3.83355 | 8827 ft | 276 kts | 270° |
| 2026-05-03 22:09 | 40.60965 | -3.85888 | 9475 ft | 279 kts | 270° |
| 2026-05-03 22:09 | 40.61028 | -3.88444 | 10128 ft | 280 kts | 269° |
| 2026-05-03 22:09 | 40.61090 | -3.91082 | 10352 ft | 297 kts | 269° |
| 2026-05-03 22:10 | 40.61222 | -3.96820 | 10702 ft | 329 kts | 269° |
| 2026-05-03 22:10 | 40.61296 | -3.99845 | 11263 ft | 331 kts | 269° |
| 2026-05-03 22:10 | 40.61369 | -4.02872 | 11840 ft | 333 kts | 269° |
| 2026-05-03 22:10 | 40.61441 | -4.05921 | 12410 ft | 334 kts | 269° |
| 2026-05-03 22:11 | 40.61512 | -4.08991 | 13023 ft | 335 kts | 268° |
| 2026-05-03 22:11 | 40.61581 | -4.12061 | 13621 ft | 336 kts | 268° |
| 2026-05-03 22:11 | 40.61649 | -4.15138 | 14120 ft | 338 kts | 268° |
| 2026-05-03 22:11 | 40.61717 | -4.18246 | 14621 ft | 340 kts | 268° |
| 2026-05-03 22:12 | 40.61785 | -4.21372 | 15130 ft | 342 kts | 268° |
| 2026-05-03 22:12 | 40.61852 | -4.24508 | 15603 ft | 345 kts | 268° |
| 2026-05-03 22:12 | 40.61920 | -4.27680 | 16083 ft | 347 kts | 268° |
| 2026-05-03 22:12 | 40.61985 | -4.30817 | 16562 ft | 349 kts | 268° |
| 2026-05-03 22:13 | 40.62053 | -4.34075 | 17035 ft | 352 kts | 268° |
| 2026-05-03 22:13 | 40.62117 | -4.37303 | 17524 ft | 354 kts | 268° |
| 2026-05-03 22:13 | 40.62180 | -4.40509 | 17990 ft | 356 kts | 268° |
| 2026-05-03 22:13 | 40.62245 | -4.43777 | 18408 ft | 359 kts | 268° |
| 2026-05-03 22:14 | 40.62309 | -4.47030 | 18849 ft | 360 kts | 268° |
| 2026-05-03 22:14 | 40.62374 | -4.50386 | 19278 ft | 360 kts | 267° |
| 2026-05-03 22:14 | 40.62149 | -4.53608 | 19672 ft | 357 kts | 254° |
| 2026-05-03 22:14 | 40.61322 | -4.56682 | 20092 ft | 355 kts | 242° |
| 2026-05-03 22:15 | 40.59986 | -4.59405 | 20496 ft | 355 kts | 232° |
| 2026-05-03 22:15 | 40.58473 | -4.61997 | 20860 ft | 357 kts | 233° |
| 2026-05-03 22:15 | 40.56979 | -4.64619 | 21282 ft | 358 kts | 233° |
| 2026-05-03 22:15 | 40.55486 | -4.67257 | 21660 ft | 360 kts | 233° |
| 2026-05-03 22:16 | 40.53992 | -4.69895 | 22045 ft | 361 kts | 233° |
| 2026-05-03 22:16 | 40.52485 | -4.72551 | 22411 ft | 363 kts | 233° |
| 2026-05-03 22:16 | 40.50970 | -4.75213 | 22806 ft | 364 kts | 233° |
| 2026-05-03 22:16 | 40.49453 | -4.77875 | 23166 ft | 365 kts | 233° |
| 2026-05-03 22:17 | 40.47922 | -4.80557 | 23513 ft | 367 kts | 233° |
| 2026-05-03 22:17 | 40.46388 | -4.83244 | 23870 ft | 368 kts | 233° |
| 2026-05-03 22:17 | 40.44849 | -4.85936 | 24193 ft | 369 kts | 233° |
| 2026-05-03 22:17 | 40.43306 | -4.88634 | 24525 ft | 370 kts | 233° |
| 2026-05-03 22:18 | 40.41754 | -4.91340 | 24811 ft | 372 kts | 233° |
| 2026-05-03 22:18 | 40.40215 | -4.94023 | 25149 ft | 373 kts | 233° |
| 2026-05-03 22:18 | 40.38637 | -4.96776 | 25490 ft | 374 kts | 233° |
| 2026-05-03 22:18 | 40.37092 | -4.99468 | 25834 ft | 375 kts | 233° |
| 2026-05-03 22:19 | 40.35519 | -5.02208 | 26185 ft | 376 kts | 233° |
| 2026-05-03 22:19 | 40.33917 | -5.04993 | 26545 ft | 378 kts | 233° |
| 2026-05-03 22:19 | 40.32358 | -5.07701 | 26938 ft | 379 kts | 233° |
| 2026-05-03 22:19 | 40.30764 | -5.10466 | 27314 ft | 380 kts | 233° |
| 2026-05-03 22:20 | 40.29168 | -5.13233 | 27652 ft | 382 kts | 233° |
| 2026-05-03 22:20 | 40.27564 | -5.16012 | 28064 ft | 384 kts | 233° |
| 2026-05-03 22:20 | 40.26055 | -5.18624 | 28397 ft | 385 kts | 233° |
| 2026-05-03 22:20 | 40.24439 | -5.21419 | 28803 ft | 387 kts | 233° |
| 2026-05-03 22:21 | 40.22805 | -5.24242 | 29156 ft | 389 kts | 233° |
| 2026-05-03 22:21 | 40.21172 | -5.27062 | 29597 ft | 389 kts | 233° |
| 2026-05-03 22:21 | 40.19530 | -5.29893 | 29972 ft | 392 kts | 233° |
| 2026-05-03 22:21 | 40.17883 | -5.32732 | 30343 ft | 393 kts | 233° |
| 2026-05-03 22:22 | 40.16223 | -5.35592 | 30692 ft | 395 kts | 233° |
| 2026-05-03 22:22 | 40.14560 | -5.38453 | 31013 ft | 396 kts | 233° |
| 2026-05-03 22:22 | 40.12890 | -5.41322 | 31364 ft | 398 kts | 233° |
| 2026-05-03 22:22 | 40.11213 | -5.44200 | 31665 ft | 399 kts | 233° |
| 2026-05-03 22:23 | 40.09526 | -5.47094 | 31990 ft | 401 kts | 233° |
| 2026-05-03 22:23 | 40.07838 | -5.49987 | 32323 ft | 402 kts | 233° |
| 2026-05-03 22:23 | 40.06141 | -5.52892 | 32648 ft | 403 kts | 233° |
| 2026-05-03 22:23 | 40.04429 | -5.55821 | 32968 ft | 405 kts | 233° |
| 2026-05-03 22:24 | 40.02707 | -5.58765 | 32999 ft | 413 kts | 233° |
| 2026-05-03 22:24 | 39.99175 | -5.64794 | 32991 ft | 424 kts | 233° |
| 2026-05-03 22:25 | 39.95593 | -5.70894 | 32997 ft | 424 kts | 233° |
| 2026-05-03 22:25 | 39.92006 | -5.76992 | 32994 ft | 424 kts | 233° |
| 2026-05-03 22:26 | 39.88416 | -5.83082 | 32997 ft | 424 kts | 233° |
| 2026-05-03 22:26 | 39.84823 | -5.89166 | 32998 ft | 423 kts | 233° |
| 2026-05-03 22:27 | 39.81239 | -5.95224 | 32989 ft | 423 kts | 233° |
| 2026-05-03 22:27 | 39.77646 | -6.01286 | 32990 ft | 422 kts | 233° |
| 2026-05-03 22:28 | 39.74055 | -6.07331 | 32991 ft | 422 kts | 233° |
| 2026-05-03 22:28 | 39.70460 | -6.13373 | 32997 ft | 423 kts | 233° |
| 2026-05-03 22:29 | 39.66859 | -6.19412 | 33000 ft | 423 kts | 233° |
| 2026-05-03 22:29 | 39.63252 | -6.25450 | 33006 ft | 424 kts | 233° |
| 2026-05-03 22:30 | 39.59638 | -6.31489 | 33011 ft | 424 kts | 233° |
| 2026-05-03 22:30 | 39.56014 | -6.37533 | 33011 ft | 425 kts | 233° |
| 2026-05-03 22:31 | 39.52510 | -6.43676 | 33028 ft | 424 kts | 238° |
| 2026-05-03 22:31 | 39.49775 | -6.50433 | 33027 ft | 424 kts | 243° |
| 2026-05-03 22:32 | 39.47159 | -6.57298 | 33036 ft | 425 kts | 243° |
| 2026-05-03 22:32 | 39.44532 | -6.64138 | 33026 ft | 425 kts | 243° |
| 2026-05-03 22:33 | 39.41897 | -6.70981 | 33028 ft | 425 kts | 243° |
| 2026-05-03 22:33 | 39.39257 | -6.77822 | 33008 ft | 425 kts | 243° |
| 2026-05-03 22:34 | 39.36617 | -6.84653 | 33011 ft | 425 kts | 243° |
| 2026-05-03 22:34 | 39.33971 | -6.91481 | 33032 ft | 425 kts | 243° |
| 2026-05-03 22:35 | 39.31321 | -6.98305 | 33032 ft | 425 kts | 243° |
| 2026-05-03 22:35 | 39.28665 | -7.05129 | 33033 ft | 425 kts | 242° |
| 2026-05-03 22:36 | 39.26006 | -7.11944 | 33041 ft | 426 kts | 242° |
| 2026-05-03 22:36 | 39.23357 | -7.18721 | 33044 ft | 426 kts | 242° |
| 2026-05-03 22:37 | 39.20855 | -7.25643 | 33042 ft | 426 kts | 246° |
| 2026-05-03 22:37 | 39.18580 | -7.32707 | 33046 ft | 427 kts | 246° |
| 2026-05-03 22:38 | 39.16299 | -7.39757 | 33053 ft | 428 kts | 246° |
| 2026-05-03 22:38 | 39.14005 | -7.46846 | 33053 ft | 428 kts | 246° |
| 2026-05-03 22:39 | 39.11709 | -7.53932 | 33062 ft | 428 kts | 246° |
| 2026-05-03 22:39 | 39.09406 | -7.61015 | 33066 ft | 429 kts | 246° |
| 2026-05-03 22:40 | 39.07101 | -7.68091 | 33067 ft | 429 kts | 246° |
| 2026-05-03 22:40 | 39.04791 | -7.75156 | 33069 ft | 429 kts | 246° |
| 2026-05-03 22:41 | 39.02471 | -7.82230 | 33069 ft | 429 kts | 246° |
| 2026-05-03 22:41 | 39.00168 | -7.89229 | 33060 ft | 429 kts | 246° |
| 2026-05-03 22:42 | 38.97839 | -7.96291 | 33066 ft | 429 kts | 246° |
| 2026-05-03 22:42 | 38.95508 | -8.03343 | 33066 ft | 429 kts | 246° |
| 2026-05-03 22:43 | 38.93172 | -8.10391 | 33072 ft | 429 kts | 246° |
| 2026-05-03 22:43 | 38.90827 | -8.17447 | 33073 ft | 429 kts | 246° |
| 2026-05-03 22:44 | 38.88481 | -8.24493 | 33073 ft | 430 kts | 246° |
| 2026-05-03 22:44 | 38.86127 | -8.31540 | 33077 ft | 430 kts | 246° |
| 2026-05-03 22:45 | 38.83766 | -8.38593 | 33077 ft | 430 kts | 246° |
| 2026-05-03 22:45 | 38.81401 | -8.45644 | 33078 ft | 431 kts | 246° |
| 2026-05-03 22:46 | 38.79034 | -8.52680 | 33075 ft | 431 kts | 246° |
| 2026-05-03 22:46 | 38.76655 | -8.59736 | 33078 ft | 431 kts | 246° |
| 2026-05-03 22:47 | 38.74269 | -8.66795 | 33082 ft | 432 kts | 246° |
| 2026-05-03 22:47 | 38.71878 | -8.73853 | 33078 ft | 432 kts | 246° |
| 2026-05-03 22:48 | 38.69484 | -8.80900 | 33072 ft | 432 kts | 246° |
| 2026-05-03 22:48 | 38.67079 | -8.87962 | 33076 ft | 433 kts | 246° |
| 2026-05-03 22:49 | 38.64664 | -8.95037 | 33076 ft | 433 kts | 246° |
| 2026-05-03 22:49 | 38.62247 | -9.02102 | 33077 ft | 433 kts | 246° |
| 2026-05-03 22:50 | 38.59844 | -9.09109 | 33079 ft | 433 kts | 246° |
| 2026-05-03 22:50 | 38.57418 | -9.16165 | 33080 ft | 434 kts | 246° |
| 2026-05-03 22:51 | 38.54986 | -9.23220 | 33086 ft | 434 kts | 246° |
| 2026-05-03 22:51 | 38.52550 | -9.30272 | 33083 ft | 434 kts | 246° |
| 2026-05-03 22:52 | 38.50102 | -9.37339 | 33086 ft | 434 kts | 246° |
| 2026-05-03 22:52 | 38.47655 | -9.44388 | 33090 ft | 435 kts | 246° |
| 2026-05-03 22:53 | 38.45201 | -9.51441 | 33093 ft | 435 kts | 246° |
| 2026-05-03 22:53 | 38.42738 | -9.58502 | 33096 ft | 435 kts | 246° |
| 2026-05-03 22:54 | 38.40274 | -9.65548 | 33099 ft | 435 kts | 246° |
| 2026-05-03 22:54 | 38.37803 | -9.72596 | 33099 ft | 436 kts | 246° |
| 2026-05-03 22:55 | 38.35326 | -9.79647 | 33105 ft | 436 kts | 246° |
| 2026-05-03 22:55 | 38.33263 | -9.85508 | 33102 ft | 436 kts | 246° |
| 2026-05-03 22:56 | 38.30768 | -9.92576 | 33111 ft | 437 kts | 246° |
| 2026-05-03 22:56 | 38.28275 | -9.99624 | 33119 ft | 437 kts | 246° |
| 2026-05-03 22:57 | 38.25773 | -10.06681 | 33115 ft | 437 kts | 246° |
| 2026-05-03 22:57 | 38.23268 | -10.13730 | 33111 ft | 438 kts | 246° |
| 2026-05-03 22:58 | 38.20754 | -10.20785 | 33117 ft | 438 kts | 246° |
| 2026-05-03 22:58 | 38.18236 | -10.27839 | 33116 ft | 438 kts | 246° |
| 2026-05-03 22:59 | 38.15714 | -10.34884 | 33116 ft | 438 kts | 247° |
| 2026-05-03 22:59 | 38.13185 | -10.41933 | 33113 ft | 439 kts | 247° |
| 2026-05-03 23:00 | 38.10645 | -10.48994 | 33119 ft | 439 kts | 247° |
| 2026-05-03 23:00 | 38.08104 | -10.56042 | 33121 ft | 439 kts | 247° |
| 2026-05-03 23:01 | 38.05571 | -10.63054 | 33125 ft | 440 kts | 247° |
| 2026-05-03 23:01 | 38.02999 | -10.70154 | 33128 ft | 441 kts | 247° |
| 2026-05-03 23:02 | 38.00437 | -10.77213 | 33126 ft | 441 kts | 247° |
| 2026-05-03 23:02 | 37.97871 | -10.84263 | 33133 ft | 441 kts | 247° |
| 2026-05-03 23:03 | 37.95299 | -10.91317 | 33133 ft | 441 kts | 247° |
| 2026-05-03 23:03 | 37.92738 | -10.98323 | 33132 ft | 441 kts | 247° |
| 2026-05-03 23:04 | 37.90162 | -11.05352 | 33131 ft | 440 kts | 247° |
| 2026-05-03 23:04 | 37.87582 | -11.12377 | 33134 ft | 440 kts | 247° |
| 2026-05-03 23:05 | 37.84997 | -11.19399 | 33128 ft | 439 kts | 247° |
| 2026-05-03 23:05 | 37.82411 | -11.26405 | 33130 ft | 439 kts | 247° |
| 2026-05-03 23:06 | 37.79827 | -11.33394 | 33132 ft | 439 kts | 247° |
| 2026-05-03 23:06 | 37.77241 | -11.40371 | 33136 ft | 439 kts | 247° |
| 2026-05-03 23:07 | 37.74645 | -11.47356 | 33131 ft | 439 kts | 247° |
| 2026-05-03 23:07 | 37.72050 | -11.54325 | 33133 ft | 439 kts | 247° |
| 2026-05-03 23:08 | 37.69448 | -11.61297 | 33137 ft | 439 kts | 247° |
| 2026-05-03 23:08 | 37.66844 | -11.68259 | 33142 ft | 439 kts | 247° |
| 2026-05-03 23:09 | 37.64234 | -11.75218 | 33141 ft | 439 kts | 247° |
| 2026-05-03 23:09 | 37.61621 | -11.82173 | 33145 ft | 439 kts | 247° |
| 2026-05-03 23:10 | 37.59004 | -11.89120 | 33143 ft | 439 kts | 247° |
| 2026-05-03 23:10 | 37.56383 | -11.96063 | 33204 ft | 441 kts | 247° |
| 2026-05-03 23:10 | 37.55064 | -11.99554 | 33650 ft | 440 kts | 247° |
| 2026-05-03 23:11 | 37.53747 | -12.03032 | 34152 ft | 438 kts | 246° |
| 2026-05-03 23:11 | 37.52437 | -12.06486 | 34560 ft | 437 kts | 246° |
| 2026-05-03 23:11 | 37.51127 | -12.09939 | 34917 ft | 437 kts | 246° |
| 2026-05-03 23:11 | 37.49812 | -12.13404 | 35103 ft | 440 kts | 246° |
| 2026-05-03 23:12 | 37.48500 | -12.16853 | 35154 ft | 436 kts | 246° |
| 2026-05-03 23:12 | 37.45880 | -12.23730 | 35149 ft | 436 kts | 246° |
| 2026-05-03 23:13 | 37.43246 | -12.30631 | 35150 ft | 437 kts | 246° |
| 2026-05-03 23:13 | 37.40625 | -12.37484 | 35152 ft | 437 kts | 246° |
| 2026-05-03 23:14 | 37.37981 | -12.44378 | 35148 ft | 438 kts | 246° |
| 2026-05-03 23:14 | 37.35327 | -12.51284 | 35157 ft | 439 kts | 246° |
| 2026-05-03 23:15 | 37.32666 | -12.58193 | 35160 ft | 440 kts | 246° |
| 2026-05-03 23:15 | 37.30006 | -12.65083 | 35162 ft | 440 kts | 246° |
| 2026-05-03 23:16 | 37.27323 | -12.72019 | 35165 ft | 440 kts | 246° |
| 2026-05-03 23:16 | 37.24644 | -12.78928 | 35160 ft | 440 kts | 246° |
| 2026-05-03 23:17 | 37.21980 | -12.85786 | 35162 ft | 440 kts | 246° |
| 2026-05-03 23:17 | 37.19278 | -12.92724 | 35161 ft | 440 kts | 246° |
| 2026-05-03 23:18 | 37.16591 | -12.99608 | 35159 ft | 439 kts | 246° |
| 2026-05-03 23:18 | 37.13903 | -13.06481 | 35161 ft | 439 kts | 246° |
| 2026-05-03 23:19 | 37.11209 | -13.13353 | 35156 ft | 439 kts | 246° |
| 2026-05-03 23:19 | 37.08514 | -13.20213 | 35157 ft | 439 kts | 246° |
| 2026-05-03 23:20 | 37.05811 | -13.27077 | 35158 ft | 439 kts | 246° |
| 2026-05-03 23:20 | 37.03105 | -13.33936 | 35166 ft | 440 kts | 246° |
| 2026-05-03 23:21 | 37.00389 | -13.40804 | 35164 ft | 440 kts | 246° |
| 2026-05-03 23:21 | 36.97673 | -13.47659 | 35164 ft | 440 kts | 245° |
| 2026-05-03 23:22 | 36.93590 | -13.57934 | 35170 ft | 440 kts | 245° |
| 2026-05-03 23:22 | 36.90857 | -13.64792 | 35167 ft | 440 kts | 245° |
| 2026-05-03 23:23 | 36.88126 | -13.71633 | 35169 ft | 440 kts | 245° |
| 2026-05-03 23:23 | 36.85379 | -13.78498 | 35562 ft | 442 kts | 245° |
| 2026-05-03 23:24 | 36.84023 | -13.81881 | 35920 ft | 441 kts | 245° |
| 2026-05-03 23:24 | 36.82652 | -13.85297 | 36273 ft | 441 kts | 245° |
| 2026-05-03 23:24 | 36.81275 | -13.88726 | 36633 ft | 440 kts | 245° |
| 2026-05-03 23:24 | 36.79905 | -13.92133 | 36978 ft | 440 kts | 245° |
| 2026-05-03 23:25 | 36.78528 | -13.95554 | 37163 ft | 443 kts | 245° |
| 2026-05-03 23:25 | 36.77153 | -13.98967 | 37170 ft | 437 kts | 245° |
| 2026-05-03 23:25 | 36.74424 | -14.05726 | 37169 ft | 437 kts | 245° |
| 2026-05-03 23:26 | 36.71688 | -14.12494 | 37174 ft | 437 kts | 245° |
| 2026-05-03 23:26 | 36.68944 | -14.19265 | 37173 ft | 437 kts | 245° |
| 2026-05-03 23:27 | 36.66200 | -14.26020 | 37178 ft | 438 kts | 245° |
| 2026-05-03 23:27 | 36.63447 | -14.32784 | 37173 ft | 437 kts | 245° |
| 2026-05-03 23:28 | 36.60695 | -14.39530 | 37172 ft | 437 kts | 245° |
| 2026-05-03 23:28 | 36.57941 | -14.46269 | 37172 ft | 437 kts | 245° |
| 2026-05-03 23:29 | 36.55182 | -14.53005 | 37176 ft | 437 kts | 245° |
| 2026-05-03 23:29 | 36.52419 | -14.59739 | 37171 ft | 437 kts | 245° |
| 2026-05-03 23:30 | 36.49651 | -14.66468 | 37169 ft | 437 kts | 245° |
| 2026-05-03 23:30 | 36.46882 | -14.73187 | 37174 ft | 437 kts | 245° |
| 2026-05-03 23:31 | 36.44105 | -14.79912 | 37174 ft | 437 kts | 245° |
| 2026-05-03 23:31 | 36.41325 | -14.86629 | 37179 ft | 437 kts | 245° |
| 2026-05-03 23:32 | 36.38540 | -14.93344 | 37207 ft | 437 kts | 245° |
| 2026-05-03 23:32 | 36.35756 | -15.00042 | 37199 ft | 436 kts | 245° |
| 2026-05-03 23:33 | 36.32974 | -15.06726 | 37189 ft | 435 kts | 245° |
| 2026-05-03 23:33 | 36.30197 | -15.13390 | 37183 ft | 434 kts | 245° |
| 2026-05-03 23:34 | 36.27446 | -15.19979 | 37173 ft | 433 kts | 245° |
| 2026-05-03 23:34 | 36.24673 | -15.26610 | 37167 ft | 433 kts | 245° |
| 2026-05-03 23:35 | 36.21903 | -15.33220 | 37165 ft | 433 kts | 245° |
| 2026-05-03 23:35 | 36.19101 | -15.39821 | 37168 ft | 433 kts | 244° |
| 2026-05-03 23:36 | 36.16152 | -15.46314 | 37165 ft | 433 kts | 244° |
| 2026-05-03 23:36 | 36.13250 | -15.52872 | 37168 ft | 434 kts | 244° |
| 2026-05-03 23:37 | 36.10343 | -15.59410 | 37177 ft | 434 kts | 244° |
| 2026-05-03 23:37 | 36.07419 | -15.65954 | 37181 ft | 435 kts | 244° |
| 2026-05-03 23:38 | 36.04487 | -15.72493 | 37183 ft | 435 kts | 244° |
| 2026-05-03 23:38 | 36.01550 | -15.79028 | 37178 ft | 435 kts | 244° |
| 2026-05-03 23:39 | 35.98606 | -15.85563 | 37195 ft | 435 kts | 244° |
| 2026-05-03 23:39 | 35.95655 | -15.92102 | 37197 ft | 435 kts | 244° |
| 2026-05-03 23:40 | 35.92707 | -15.98623 | 37194 ft | 435 kts | 244° |
| 2026-05-03 23:40 | 35.89750 | -16.05149 | 37188 ft | 435 kts | 244° |
| 2026-05-03 23:41 | 35.86793 | -16.11663 | 37179 ft | 435 kts | 244° |
| 2026-05-03 23:41 | 35.84333 | -16.17073 | 37178 ft | 435 kts | 244° |
| 2026-05-03 23:42 | 35.81373 | -16.23572 | 37177 ft | 435 kts | 244° |
| 2026-05-03 23:42 | 35.78404 | -16.30076 | 37172 ft | 435 kts | 244° |
| 2026-05-03 23:43 | 35.75435 | -16.36569 | 37174 ft | 435 kts | 244° |
| 2026-05-03 23:43 | 35.72459 | -16.43063 | 37175 ft | 436 kts | 244° |
| 2026-05-03 23:44 | 35.69478 | -16.49557 | 37177 ft | 436 kts | 243° |
| 2026-05-03 23:44 | 35.66495 | -16.56043 | 37177 ft | 436 kts | 243° |
| 2026-05-03 23:45 | 35.63504 | -16.62535 | 37180 ft | 436 kts | 243° |
| 2026-05-03 23:45 | 35.60502 | -16.69035 | 37178 ft | 437 kts | 243° |
| 2026-05-03 23:46 | 35.57504 | -16.75518 | 37178 ft | 437 kts | 243° |
| 2026-05-03 23:46 | 35.54495 | -16.82010 | 37181 ft | 437 kts | 243° |
| 2026-05-03 23:47 | 35.51485 | -16.88492 | 37178 ft | 437 kts | 243° |
| 2026-05-03 23:47 | 35.48466 | -16.94981 | 37178 ft | 438 kts | 243° |
| 2026-05-03 23:48 | 35.45446 | -17.01461 | 37175 ft | 438 kts | 243° |
| 2026-05-03 23:48 | 35.42418 | -17.07944 | 37179 ft | 438 kts | 243° |
| 2026-05-03 23:49 | 35.39389 | -17.14418 | 37172 ft | 438 kts | 243° |
| 2026-05-03 23:49 | 35.36372 | -17.20852 | 37176 ft | 438 kts | 243° |
| 2026-05-03 23:50 | 35.33332 | -17.27326 | 37172 ft | 438 kts | 243° |
| 2026-05-03 23:50 | 35.30292 | -17.33788 | 37173 ft | 439 kts | 243° |
| 2026-05-03 23:51 | 35.27247 | -17.40245 | 37174 ft | 439 kts | 243° |
| 2026-05-03 23:51 | 35.24184 | -17.46730 | 37172 ft | 439 kts | 243° |
| 2026-05-03 23:52 | 35.21126 | -17.53195 | 37174 ft | 439 kts | 243° |
| 2026-05-03 23:52 | 35.18061 | -17.59660 | 37172 ft | 440 kts | 243° |
| 2026-05-03 23:53 | 35.14987 | -17.66130 | 37175 ft | 440 kts | 243° |
| 2026-05-03 23:53 | 35.11911 | -17.72595 | 37171 ft | 440 kts | 243° |
| 2026-05-03 23:54 | 35.08831 | -17.79056 | 37168 ft | 441 kts | 242° |
| 2026-05-03 23:54 | 35.05739 | -17.85528 | 37166 ft | 441 kts | 242° |
| 2026-05-03 23:55 | 35.02647 | -17.91990 | 37166 ft | 441 kts | 242° |
| 2026-05-03 23:55 | 34.99573 | -17.98401 | 37163 ft | 441 kts | 242° |
| 2026-05-03 23:56 | 34.96468 | -18.04866 | 37164 ft | 442 kts | 242° |
| 2026-05-03 23:56 | 34.93360 | -18.11324 | 37163 ft | 442 kts | 242° |
| 2026-05-03 23:57 | 34.90242 | -18.17792 | 37164 ft | 442 kts | 242° |
| 2026-05-03 23:57 | 34.87118 | -18.24259 | 37162 ft | 443 kts | 242° |
| 2026-05-03 23:58 | 34.83992 | -18.30719 | 37170 ft | 443 kts | 242° |
| 2026-05-03 23:58 | 34.80856 | -18.37187 | 37167 ft | 443 kts | 242° |
| 2026-05-03 23:59 | 34.77716 | -18.43652 | 37164 ft | 443 kts | 242° |
| 2026-05-03 23:59 | 34.74570 | -18.50118 | 37159 ft | 444 kts | 242° |
| 2026-05-04 00:00 | 34.71429 | -18.56560 | 37156 ft | 444 kts | 242° |
| 2026-05-04 00:00 | 34.68274 | -18.63021 | 37162 ft | 444 kts | 242° |
| 2026-05-04 00:01 | 34.65140 | -18.69426 | 37166 ft | 444 kts | 242° |
| 2026-05-04 00:01 | 34.61981 | -18.75869 | 37158 ft | 444 kts | 242° |
| 2026-05-04 00:02 | 34.58815 | -18.82317 | 37152 ft | 445 kts | 242° |
| 2026-05-04 00:02 | 34.55644 | -18.88762 | 37153 ft | 445 kts | 241° |
| 2026-05-04 00:03 | 34.52466 | -18.95208 | 37158 ft | 445 kts | 241° |
| 2026-05-04 00:03 | 34.49287 | -19.01648 | 37157 ft | 445 kts | 241° |
| 2026-05-04 00:04 | 34.46101 | -19.08088 | 37154 ft | 446 kts | 241° |
| 2026-05-04 00:04 | 34.42911 | -19.14525 | 37158 ft | 446 kts | 241° |
| 2026-05-04 00:05 | 34.39714 | -19.20963 | 37160 ft | 446 kts | 241° |
| 2026-05-04 00:05 | 34.36516 | -19.27392 | 37158 ft | 446 kts | 241° |
| 2026-05-04 00:06 | 34.33313 | -19.33820 | 37157 ft | 446 kts | 241° |
| 2026-05-04 00:06 | 34.30113 | -19.40230 | 37155 ft | 446 kts | 241° |
| 2026-05-04 00:07 | 34.26894 | -19.46668 | 37146 ft | 446 kts | 241° |
| 2026-05-04 00:07 | 34.23705 | -19.53033 | 37143 ft | 446 kts | 241° |
| 2026-05-04 00:08 | 34.20488 | -19.59441 | 37163 ft | 446 kts | 241° |
| 2026-05-04 00:08 | 34.17272 | -19.65838 | 37166 ft | 446 kts | 241° |
| 2026-05-04 00:09 | 34.14052 | -19.72228 | 37164 ft | 445 kts | 240° |
| 2026-05-04 00:09 | 34.10831 | -19.78613 | 37155 ft | 445 kts | 240° |
| 2026-05-04 00:10 | 34.07604 | -19.84998 | 37155 ft | 445 kts | 240° |
| 2026-05-04 00:10 | 34.04383 | -19.91366 | 37130 ft | 445 kts | 240° |
| 2026-05-04 00:11 | 34.01176 | -19.97696 | 37150 ft | 444 kts | 240° |
| 2026-05-04 00:11 | 33.98059 | -20.04112 | 37138 ft | 443 kts | 244° |
| 2026-05-04 00:12 | 33.95249 | -20.10704 | 37146 ft | 442 kts | 245° |
| 2026-05-04 00:12 | 33.92428 | -20.17271 | 37143 ft | 442 kts | 244° |
| 2026-05-04 00:13 | 33.89565 | -20.23836 | 37145 ft | 441 kts | 244° |
| 2026-05-04 00:13 | 33.86703 | -20.30370 | 37143 ft | 441 kts | 244° |
| 2026-05-04 00:14 | 33.83843 | -20.36887 | 37140 ft | 440 kts | 244° |
| 2026-05-04 00:14 | 33.80985 | -20.43390 | 37141 ft | 440 kts | 244° |
| 2026-05-04 00:15 | 33.78118 | -20.49900 | 37428 ft | 441 kts | 244° |
| 2026-05-04 00:15 | 33.76678 | -20.53165 | 37801 ft | 441 kts | 244° |
| 2026-05-04 00:15 | 33.75244 | -20.56412 | 38136 ft | 440 kts | 244° |
| 2026-05-04 00:16 | 33.73805 | -20.59666 | 38474 ft | 440 kts | 244° |
| 2026-05-04 00:16 | 33.72372 | -20.62904 | 38801 ft | 439 kts | 244° |
| 2026-05-04 00:16 | 33.70958 | -20.66094 | 39056 ft | 439 kts | 244° |
| 2026-05-04 00:16 | 33.69498 | -20.69385 | 39128 ft | 443 kts | 244° |
| 2026-05-04 00:17 | 33.66655 | -20.75782 | 39137 ft | 434 kts | 244° |
| 2026-05-04 00:17 | 33.63780 | -20.82241 | 39134 ft | 436 kts | 244° |
| 2026-05-04 00:18 | 33.60936 | -20.88619 | 39134 ft | 436 kts | 244° |
| 2026-05-04 00:18 | 33.58076 | -20.95020 | 39134 ft | 436 kts | 244° |
| 2026-05-04 00:19 | 33.55210 | -21.01422 | 39135 ft | 436 kts | 244° |
| 2026-05-04 00:19 | 33.52344 | -21.07816 | 39153 ft | 436 kts | 244° |
| 2026-05-04 00:20 | 33.49479 | -21.14193 | 39151 ft | 435 kts | 244° |
| 2026-05-04 00:20 | 33.46618 | -21.20550 | 39154 ft | 435 kts | 244° |
| 2026-05-04 00:21 | 33.43739 | -21.26936 | 39152 ft | 434 kts | 243° |
| 2026-05-04 00:21 | 33.40882 | -21.33262 | 39150 ft | 434 kts | 243° |
| 2026-05-04 00:22 | 33.37991 | -21.39652 | 39145 ft | 433 kts | 243° |
| 2026-05-04 00:22 | 33.35120 | -21.45987 | 39144 ft | 433 kts | 243° |
| 2026-05-04 00:23 | 33.32235 | -21.52341 | 39142 ft | 432 kts | 243° |
| 2026-05-04 00:23 | 33.29389 | -21.58598 | 39133 ft | 432 kts | 243° |
| 2026-05-04 00:24 | 33.26496 | -21.64945 | 39119 ft | 432 kts | 243° |
| 2026-05-04 00:24 | 33.23634 | -21.71216 | 39115 ft | 431 kts | 243° |
| 2026-05-04 00:25 | 33.20758 | -21.77505 | 39128 ft | 431 kts | 243° |
| 2026-05-04 00:25 | 33.17882 | -21.83783 | 39129 ft | 431 kts | 243° |
| 2026-05-04 00:26 | 33.15001 | -21.90061 | 39130 ft | 431 kts | 243° |
| 2026-05-04 00:26 | 33.12124 | -21.96322 | 39126 ft | 430 kts | 243° |
| 2026-05-04 00:27 | 33.09258 | -22.02545 | 39126 ft | 430 kts | 243° |
| 2026-05-04 00:27 | 33.06359 | -22.08830 | 39121 ft | 430 kts | 243° |
| 2026-05-04 00:28 | 33.03486 | -22.15046 | 39125 ft | 430 kts | 243° |
| 2026-05-04 00:28 | 33.00589 | -22.21305 | 39127 ft | 431 kts | 243° |
| 2026-05-04 00:29 | 32.97694 | -22.27549 | 39124 ft | 431 kts | 243° |
| 2026-05-04 00:29 | 32.94788 | -22.33805 | 39128 ft | 431 kts | 242° |
| 2026-05-04 00:30 | 32.92372 | -22.38997 | 39131 ft | 431 kts | 242° |
| 2026-05-04 00:30 | 32.89462 | -22.45243 | 39128 ft | 432 kts | 242° |
| 2026-05-04 00:31 | 32.86549 | -22.51483 | 39128 ft | 432 kts | 242° |
| 2026-05-04 00:31 | 32.83624 | -22.57739 | 39129 ft | 432 kts | 242° |
| 2026-05-04 00:32 | 32.80701 | -22.63980 | 39125 ft | 432 kts | 242° |
| 2026-05-04 00:32 | 32.77797 | -22.70168 | 39121 ft | 432 kts | 242° |
| 2026-05-04 00:33 | 32.73396 | -22.79529 | 39113 ft | 432 kts | 242° |
| 2026-05-04 00:34 | 32.70454 | -22.85773 | 39116 ft | 433 kts | 242° |
| 2026-05-04 00:34 | 32.67510 | -22.92010 | 39118 ft | 433 kts | 242° |
| 2026-05-04 00:35 | 32.64575 | -22.98218 | 39113 ft | 434 kts | 242° |
| 2026-05-04 00:35 | 32.61619 | -23.04460 | 39111 ft | 434 kts | 242° |
| 2026-05-04 00:36 | 32.58653 | -23.10711 | 39113 ft | 435 kts | 242° |
| 2026-05-04 00:36 | 32.55684 | -23.16959 | 39111 ft | 435 kts | 242° |
| 2026-05-04 00:37 | 32.52703 | -23.23221 | 39110 ft | 436 kts | 242° |
| 2026-05-04 00:37 | 32.49714 | -23.29490 | 39113 ft | 436 kts | 242° |
| 2026-05-04 00:38 | 32.46725 | -23.35747 | 39112 ft | 437 kts | 241° |
| 2026-05-04 00:38 | 32.43742 | -23.41982 | 39111 ft | 438 kts | 241° |
| 2026-05-04 00:39 | 32.40733 | -23.48259 | 39113 ft | 438 kts | 241° |
| 2026-05-04 00:39 | 32.37722 | -23.54531 | 39110 ft | 439 kts | 241° |
| 2026-05-04 00:40 | 32.34699 | -23.60817 | 39108 ft | 439 kts | 241° |
| 2026-05-04 00:40 | 32.31680 | -23.67083 | 39113 ft | 440 kts | 241° |
| 2026-05-04 00:41 | 32.28640 | -23.73384 | 39107 ft | 440 kts | 241° |
| 2026-05-04 00:41 | 32.25604 | -23.79665 | 39110 ft | 440 kts | 241° |
| 2026-05-04 00:42 | 32.22578 | -23.85915 | 39110 ft | 441 kts | 241° |
| 2026-05-04 00:42 | 32.19528 | -23.92203 | 39112 ft | 441 kts | 240° |
| 2026-05-04 00:43 | 32.16471 | -23.98494 | 39108 ft | 441 kts | 240° |
| 2026-05-04 00:43 | 32.13413 | -24.04778 | 39105 ft | 442 kts | 240° |
| 2026-05-04 00:44 | 32.10350 | -24.11063 | 39102 ft | 442 kts | 240° |
| 2026-05-04 00:44 | 32.07275 | -24.17360 | 39104 ft | 443 kts | 240° |
| 2026-05-04 00:45 | 32.04216 | -24.23615 | 39101 ft | 443 kts | 240° |
| 2026-05-04 00:45 | 32.01129 | -24.29916 | 39102 ft | 444 kts | 240° |
| 2026-05-04 00:46 | 31.98040 | -24.36209 | 39102 ft | 444 kts | 240° |
| 2026-05-04 00:46 | 31.94941 | -24.42514 | 39099 ft | 444 kts | 240° |
| 2026-05-04 00:47 | 31.91854 | -24.48783 | 39101 ft | 445 kts | 240° |
| 2026-05-04 00:47 | 31.88734 | -24.55110 | 39097 ft | 445 kts | 240° |
| 2026-05-04 00:48 | 31.85621 | -24.61410 | 39099 ft | 446 kts | 240° |
| 2026-05-04 00:48 | 31.82516 | -24.67684 | 39096 ft | 446 kts | 240° |
| 2026-05-04 00:49 | 31.79386 | -24.73997 | 39095 ft | 446 kts | 240° |
| 2026-05-04 00:49 | 31.76256 | -24.80301 | 39093 ft | 447 kts | 240° |
| 2026-05-04 00:50 | 31.73115 | -24.86616 | 39096 ft | 447 kts | 240° |
| 2026-05-04 00:50 | 31.69981 | -24.92907 | 39093 ft | 447 kts | 240° |
| 2026-05-04 00:51 | 31.66835 | -24.99211 | 39088 ft | 448 kts | 240° |
| 2026-05-04 00:51 | 31.63681 | -25.05522 | 39091 ft | 448 kts | 239° |
| 2026-05-04 00:52 | 31.60527 | -25.11820 | 39089 ft | 448 kts | 239° |
| 2026-05-04 00:52 | 31.57368 | -25.18118 | 39086 ft | 448 kts | 239° |
| 2026-05-04 00:53 | 31.54224 | -25.24378 | 39080 ft | 448 kts | 239° |
| 2026-05-04 00:53 | 31.51061 | -25.30663 | 39080 ft | 448 kts | 239° |
| 2026-05-04 00:54 | 31.47890 | -25.36955 | 39081 ft | 448 kts | 239° |
| 2026-05-04 00:54 | 31.44720 | -25.43235 | 39078 ft | 448 kts | 239° |
| 2026-05-04 00:55 | 31.41543 | -25.49519 | 39081 ft | 447 kts | 239° |